Time;durP1;ratioP1;P1;durP2;ratioP2;P2;SDS_P1;SDS_P2;PMS_P1;PMS_P2;Temp;Humidity;BMP_temperature;BMP_pressure;BME280_temperature;BME280_humidity;BME280_pressure;Samples;Min_cycle;Max_cycle;Signal;HPM_P1;HPM_P2
2020/12/20 00:01:44;;;;;;;2.50;2.15;;;8.70;79.60;;;;;;5143903;27;20030;-46
2020/12/20 00:04:13;;;;;;;3.00;2.50;;;8.70;79.70;;;;;;5136287;27;20018;-45
2020/12/20 00:06:43;;;;;;;3.17;2.75;;;8.70;79.70;;;;;;5139713;27;20023;-46
2020/12/20 00:09:15;;;;;;;2.95;2.33;;;8.70;79.70;;;;;;5107144;27;20581;-45
2020/12/20 00:11:42;;;;;;;2.88;2.53;;;8.70;79.60;;;;;;5127546;27;20126;-45
2020/12/20 00:17:01;;;;;;;2.55;2.17;;;8.70;79.60;;;;;;5106195;27;20038;-45
2020/12/20 00:19:28;;;;;;;2.83;2.42;;;8.70;79.70;;;;;;5124486;27;20044;-46
2020/12/20 00:21:58;;;;;;;2.70;2.33;;;8.70;79.70;;;;;;5129218;27;20111;-45
2020/12/20 00:24:25;;;;;;;3.35;2.35;;;8.70;79.60;;;;;;5127615;27;20049;-45
2020/12/20 00:26:51;;;;;;;3.17;2.47;;;8.70;79.60;;;;;;5127159;27;20046;-45
2020/12/20 00:29:17;;;;;;;2.90;2.28;;;8.70;79.60;;;;;;5106719;28;20123;-45
2020/12/20 00:31:43;;;;;;;2.75;2.28;;;8.70;79.70;;;;;;5126581;27;20063;-45
2020/12/20 00:34:09;;;;;;;3.33;2.30;;;8.70;79.60;;;;;;5127330;27;20050;-45
2020/12/20 00:36:36;;;;;;;2.78;2.55;;;8.70;79.60;;;;;;5124935;27;20057;-45
2020/12/20 00:39:03;;;;;;;3.20;2.38;;;8.70;79.60;;;;;;5123109;28;20032;-45
2020/12/20 00:41:30;;;;;;;2.50;2.15;;;8.70;79.60;;;;;;5103828;28;20127;-45
2020/12/20 00:43:56;;;;;;;3.03;2.30;;;8.70;79.70;;;;;;5122553;28;20762;-45
2020/12/20 00:46:22;;;;;;;2.40;2.20;;;8.70;79.60;;;;;;5122999;28;20099;-45
2020/12/20 00:48:48;;;;;;;2.97;2.38;;;8.70;79.60;;;;;;5124043;28;20028;-45
2020/12/20 00:51:14;;;;;;;2.70;2.08;;;8.70;80.30;;;;;;5143138;28;20123;-45
2020/12/20 00:53:41;;;;;;;3.10;2.63;;;8.70;79.60;;;;;;5143447;28;20026;-45
2020/12/20 00:56:07;;;;;;;3.55;2.30;;;8.70;79.50;;;;;;5143323;28;20027;-45
2020/12/20 00:58:33;;;;;;;4.43;2.72;;;8.70;79.60;;;;;;5143295;28;20069;-45
2020/12/20 01:01:00;;;;;;;2.95;2.40;;;8.70;79.60;;;;;;5106998;28;20024;-45
2020/12/20 01:03:27;;;;;;;;;;;8.70;79.50;;;;;;5121396;28;20012;-44
2020/12/20 01:05:53;;;;;;;2.63;2.25;;;8.70;79.60;;;;;;5125681;28;20319;-46
2020/12/20 01:08:19;;;;;;;3.00;2.30;;;8.70;79.50;;;;;;5132136;28;20091;-45
2020/12/20 01:10:45;;;;;;;3.83;2.63;;;8.60;79.50;;;;;;5128464;28;20050;-45
2020/12/20 01:13:12;;;;;;;3.08;2.38;;;8.60;79.60;;;;;;5128821;28;20461;-46
2020/12/20 01:15:38;;;;;;;2.75;2.25;;;8.60;79.50;;;;;;5128455;28;20054;-45
2020/12/20 01:18:04;;;;;;;2.67;2.28;;;8.60;79.50;;;;;;5127666;28;20020;-46
2020/12/20 01:20:30;;;;;;;2.55;2.03;;;8.60;79.40;;;;;;5133772;27;20662;-45
2020/12/20 01:22:56;;;;;;;3.63;2.50;;;8.60;79.40;;;;;;5127447;27;20043;-46
2020/12/20 01:25:22;;;;;;;2.95;2.60;;;8.60;79.30;;;;;;5130163;27;20030;-45
2020/12/20 01:27:49;;;;;;;3.22;2.47;;;8.60;79.30;;;;;;5129049;27;20038;-45
2020/12/20 01:30:15;;;;;;;2.42;2.22;;;8.60;79.30;;;;;;5133036;27;20027;-45
2020/12/20 01:32:41;;;;;;;2.88;2.47;;;8.60;79.30;;;;;;5131440;27;20046;-45
2020/12/20 01:35:08;;;;;;;3.47;2.58;;;8.60;79.30;;;;;;5130983;27;20027;-46
2020/12/20 01:37:34;;;;;;;3.40;2.40;;;8.60;79.30;;;;;;5126605;27;20080;-45
2020/12/20 01:40:00;;;;;;;3.22;2.20;;;8.60;79.30;;;;;;5126371;28;20046;-45
2020/12/20 01:42:27;;;;;;;2.67;2.17;;;8.60;79.20;;;;;;5126175;28;20575;-46
2020/12/20 01:44:53;;;;;;;2.45;2.15;;;8.50;79.10;;;;;;5126376;28;20055;-46
2020/12/20 01:47:19;;;;;;;2.90;2.50;;;8.60;79.20;;;;;;5126180;28;20072;-45
2020/12/20 01:49:46;;;;;;;2.95;2.42;;;8.60;79.20;;;;;;5127453;27;20043;-45
2020/12/20 01:52:12;;;;;;;1.87;1.60;;;8.60;79.20;;;;;;5107422;28;20065;-45
2020/12/20 01:54:38;;;;;;;2.87;2.37;;;8.50;79.20;;;;;;5125959;28;20027;-47
2020/12/20 01:57:04;;;;;;;2.75;2.22;;;8.60;79.30;;;;;;5107401;28;20028;-45
2020/12/20 01:59:31;;;;;;;2.47;2.20;;;8.50;79.20;;;;;;5126092;28;20030;-46
2020/12/20 02:01:59;;;;;;;2.55;2.33;;;8.50;79.20;;;;;;5124525;28;20057;-45
2020/12/20 02:04:28;;;;;;;3.10;2.42;;;8.50;79.30;;;;;;5134490;27;20077;-45
2020/12/20 02:06:54;;;;;;;3.00;2.40;;;8.50;79.20;;;;;;5139941;27;20027;-46
2020/12/20 02:09:20;;;;;;;3.22;2.78;;;8.50;79.20;;;;;;5105535;28;20828;-46
2020/12/20 02:11:47;;;;;;;2.78;2.35;;;8.50;79.30;;;;;;5127642;27;20131;-45
2020/12/20 02:14:13;;;;;;;2.63;2.42;;;8.50;79.20;;;;;;5123649;27;20030;-45
2020/12/20 02:16:39;;;;;;;2.83;2.35;;;8.50;79.20;;;;;;5130507;27;20068;-45
2020/12/20 02:19:05;;;;;;;3.00;2.47;;;8.50;79.20;;;;;;5125837;27;20039;-45
2020/12/20 02:21:31;;;;;;;2.92;2.50;;;8.50;79.20;;;;;;5128223;27;20035;-45
2020/12/20 02:23:57;;;;;;;3.50;2.50;;;8.50;79.20;;;;;;5129008;27;20027;-45
2020/12/20 02:26:24;;;;;;;2.90;2.42;;;8.50;79.20;;;;;;5131824;27;20042;-45
2020/12/20 02:28:54;;;;;;;3.88;2.70;;;8.50;79.20;;;;;;5127852;27;20055;-46
2020/12/20 02:31:21;;;;;;;2.60;2.35;;;8.50;79.20;;;;;;5126428;27;20869;-46
2020/12/20 02:33:47;;;;;;;3.00;2.25;;;8.50;79.20;;;;;;5128524;27;20028;-45
2020/12/20 02:36:14;;;;;;;2.57;2.33;;;8.50;79.20;;;;;;5108217;28;20032;-46
2020/12/20 02:38:40;;;;;;;2.92;2.25;;;8.40;79.20;;;;;;5125387;28;20028;-45
2020/12/20 02:41:06;;;;;;;2.22;1.95;;;8.50;79.20;;;;;;5125097;28;20702;-45
2020/12/20 02:43:32;;;;;;;2.67;2.33;;;8.50;79.20;;;;;;5125267;28;20019;-46
2020/12/20 02:45:59;;;;;;;2.67;2.22;;;8.50;79.30;;;;;;5125109;28;20024;-45
2020/12/20 02:48:25;;;;;;;2.95;2.60;;;8.50;79.20;;;;;;5124943;28;20027;-45
2020/12/20 02:50:51;;;;;;;3.42;2.72;;;8.50;79.20;;;;;;5143359;27;20027;-45
2020/12/20 02:53:17;;;;;;;2.95;2.30;;;8.50;79.20;;;;;;5145775;27;20023;-45
2020/12/20 02:55:43;;;;;;;3.65;2.30;;;8.40;79.20;;;;;;5145677;27;20023;-45
2020/12/20 02:58:09;;;;;;;3.63;2.60;;;8.40;79.20;;;;;;5145342;27;20027;-45
2020/12/20 03:00:38;;;;;;;2.65;2.30;;;8.40;79.20;;;;;;5145294;27;20028;-44
2020/12/20 03:03:04;;;;;;;2.80;2.33;;;8.40;79.20;;;;;;5137659;27;20038;-45
2020/12/20 03:05:31;;;;;;;1.88;1.67;;;8.40;79.20;;;;;;5130278;27;20535;-45
2020/12/20 03:07:57;;;;;;;2.78;2.33;;;8.40;79.20;;;;;;5130892;27;20031;-45
2020/12/20 03:10:23;;;;;;;3.30;2.55;;;8.40;79.30;;;;;;5127569;27;20061;-45
2020/12/20 03:12:49;;;;;;;2.55;2.25;;;8.40;79.20;;;;;;5126004;27;20111;-45
2020/12/20 03:15:15;;;;;;;2.88;2.42;;;8.40;79.30;;;;;;5131321;27;20125;-45
2020/12/20 03:17:42;;;;;;;3.85;2.63;;;8.40;79.30;;;;;;5126353;27;20044;-45
2020/12/20 03:20:08;;;;;;;2.90;2.53;;;8.40;79.30;;;;;;5126436;27;20061;-45
2020/12/20 03:22:34;;;;;;;4.15;2.90;;;8.40;79.30;;;;;;5127901;27;20038;-45
2020/12/20 03:25:00;;;;;;;2.72;2.33;;;8.40;79.30;;;;;;5128874;27;20058;-45
2020/12/20 03:27:27;;;;;;;3.55;2.60;;;8.40;79.30;;;;;;5129835;27;20050;-45
2020/12/20 03:29:53;;;;;;;3.20;2.60;;;8.40;79.30;;;;;;5128752;27;20060;-45
2020/12/20 03:32:19;;;;;;;3.25;2.28;;;8.40;79.30;;;;;;5129467;27;20407;-46
2020/12/20 03:34:45;;;;;;;2.63;2.22;;;8.40;79.30;;;;;;5126282;27;20024;-45
2020/12/20 03:37:11;;;;;;;2.88;2.38;;;8.40;79.30;;;;;;5125391;27;20023;-45
2020/12/20 03:39:38;;;;;;;2.67;2.38;;;8.40;79.30;;;;;;5123912;28;20114;-46
2020/12/20 03:42:04;;;;;;;3.43;2.60;;;8.40;79.30;;;;;;5124045;28;20023;-45
2020/12/20 03:44:30;;;;;;;3.47;2.20;;;8.40;79.30;;;;;;5123706;28;20062;-45
2020/12/20 03:46:56;;;;;;;5.47;2.58;;;8.40;79.30;;;;;;5124137;28;20077;-45
2020/12/20 03:49:23;;;;;;;3.22;2.45;;;8.40;79.40;;;;;;5130052;27;20508;-45
2020/12/20 03:51:49;;;;;;;2.95;2.63;;;8.40;79.30;;;;;;5144178;27;20035;-45
2020/12/20 03:54:15;;;;;;;2.60;2.33;;;8.40;79.30;;;;;;5144527;27;20061;-45
2020/12/20 03:56:41;;;;;;;3.35;2.40;;;8.30;79.30;;;;;;5141825;27;20090;-45
2020/12/20 03:59:07;;;;;;;2.80;2.40;;;8.40;79.30;;;;;;5127495;27;20055;-45
2020/12/20 04:01:33;;;;;;;3.67;2.80;;;8.40;79.30;;;;;;5123491;28;20031;-45
2020/12/20 04:03:59;;;;;;;3.13;2.50;;;8.30;79.30;;;;;;5105122;28;20024;-45
2020/12/20 04:06:26;;;;;;;2.88;2.35;;;8.40;79.30;;;;;;5123662;28;20148;-45
2020/12/20 04:08:52;;;;;;;2.55;2.22;;;8.30;79.30;;;;;;5123682;28;20096;-45
2020/12/20 04:11:18;;;;;;;3.45;2.78;;;8.30;79.30;;;;;;5123169;28;20036;-46
2020/12/20 04:13:44;;;;;;;2.95;2.28;;;8.30;79.30;;;;;;5123492;28;20023;-45
2020/12/20 04:16:11;;;;;;;2.65;2.25;;;8.30;79.30;;;;;;5123622;28;20027;-45
2020/12/20 04:18:37;;;;;;;3.60;2.72;;;8.30;79.30;;;;;;5121397;28;20048;-45
2020/12/20 04:21:04;;;;;;;3.47;2.60;;;8.30;79.30;;;;;;5143852;27;20039;-45
2020/12/20 04:23:31;;;;;;;3.10;2.60;;;8.30;79.30;;;;;;5144124;27;20694;-45
2020/12/20 04:25:57;;;;;;;3.10;2.53;;;8.30;79.30;;;;;;5144082;27;20509;-45
2020/12/20 04:28:23;;;;;;;2.45;2.25;;;8.30;79.30;;;;;;5143808;27;20031;-45
2020/12/20 04:30:51;;;;;;;3.28;2.60;;;8.30;79.40;;;;;;5143671;27;20103;-45
2020/12/20 04:33:18;;;;;;;3.20;2.70;;;8.30;79.30;;;;;;5132247;27;20083;-45
2020/12/20 04:35:44;;;;;;;3.08;2.58;;;8.30;79.30;;;;;;5143840;27;20023;-43
2020/12/20 04:38:10;;;;;;;2.67;2.25;;;8.30;79.30;;;;;;5144045;27;20030;-45
2020/12/20 04:40:36;;;;;;;2.83;2.17;;;8.30;79.30;;;;;;5143382;27;20047;-45
2020/12/20 04:43:03;;;;;;;3.72;2.72;;;8.30;79.30;;;;;;5143564;28;20031;-45
2020/12/20 04:45:30;;;;;;;2.70;2.30;;;8.30;79.30;;;;;;5143921;28;20049;-46
2020/12/20 04:47:56;;;;;;;4.47;3.00;;;8.30;79.30;;;;;;5143693;28;20035;-45
2020/12/20 04:50:23;;;;;;;3.78;2.70;;;8.30;79.40;;;;;;5128927;28;20074;-46
2020/12/20 04:52:53;;;;;;;3.42;2.70;;;8.30;79.30;;;;;;5122725;28;20036;-45
2020/12/20 04:55:23;;;;;;;3.72;2.70;;;8.30;79.30;;;;;;5124379;28;20051;-45
2020/12/20 04:57:50;;;;;;;3.58;2.55;;;8.30;79.40;;;;;;5127010;28;20024;-45
2020/12/20 05:00:16;;;;;;;3.65;2.78;;;8.30;79.30;;;;;;5129942;27;20020;-45
2020/12/20 05:02:42;;;;;;;3.33;2.65;;;8.30;79.40;;;;;;5108910;28;20495;-45
2020/12/20 05:05:09;;;;;;;3.65;2.20;;;8.30;79.40;;;;;;5147720;27;20039;-45
2020/12/20 05:07:35;;;;;;;3.20;2.90;;;8.30;79.40;;;;;;5147783;27;20027;-45
2020/12/20 05:10:02;;;;;;;4.30;3.03;;;8.30;79.40;;;;;;5147704;27;20023;-45
2020/12/20 05:12:33;;;;;;;4.18;2.83;;;8.30;79.30;;;;;;5128753;27;20103;-45
2020/12/20 05:14:59;;;;;;;3.30;2.60;;;8.30;79.40;;;;;;5147666;27;20035;-45
2020/12/20 05:17:26;;;;;;;3.15;2.60;;;8.30;79.40;;;;;;5147457;27;20116;-45
2020/12/20 05:19:52;;;;;;;3.13;2.33;;;8.30;79.40;;;;;;5138905;27;20533;-45
2020/12/20 05:22:20;;;;;;;2.72;2.40;;;8.30;79.40;;;;;;5126612;28;20317;-46
2020/12/20 05:24:46;;;;;;;;;;;8.30;79.40;;;;;;5127196;28;20095;-45
2020/12/20 05:27:29;;;;;;;3.03;2.45;;;8.30;79.40;;;;;;5126393;28;19919;-45
2020/12/20 05:30:11;;;;;;;3.65;2.60;;;8.30;79.40;;;;;;5126792;28;20038;-45
2020/12/20 05:32:42;;;;;;;2.70;2.28;;;8.30;79.40;;;;;;5133363;27;20039;-45
2020/12/20 05:35:17;;;;;;;3.10;2.40;;;8.30;79.40;;;;;;5106013;28;20020;-45
2020/12/20 05:37:43;;;;;;;3.05;2.30;;;8.30;79.40;;;;;;5106221;28;20035;-45
2020/12/20 05:40:15;;;;;;;3.13;2.80;;;8.30;79.40;;;;;;5106173;28;20051;-45
2020/12/20 05:42:59;;;;;;;3.50;2.60;;;8.30;79.40;;;;;;5105740;28;20028;-45
2020/12/20 05:45:28;;;;;;;3.35;2.72;;;8.30;79.40;;;;;;5105911;28;20084;-45
2020/12/20 05:47:54;;;;;;;4.10;2.53;;;8.30;79.40;;;;;;5105932;28;20035;-45
2020/12/20 05:50:21;;;;;;;2.88;2.40;;;8.30;79.40;;;;;;5134620;27;20054;-45
2020/12/20 05:53:13;;;;;;;3.63;2.47;;;8.30;79.40;;;;;;5146435;27;20027;-45
2020/12/20 05:55:40;;;;;;;3.22;2.35;;;8.30;79.40;;;;;;5125532;27;20046;-45
2020/12/20 05:58:10;;;;;;;3.15;2.60;;;8.30;79.40;;;;;;5125998;28;20015;-45
2020/12/20 06:00:36;;;;;;;3.45;2.92;;;8.30;79.40;;;;;;5126096;28;20031;-45
2020/12/20 06:03:03;;;;;;;3.83;2.88;;;8.30;79.40;;;;;;5128780;27;20031;-45
2020/12/20 06:05:35;;;;;;;3.80;3.08;;;8.30;79.50;;;;;;5111163;27;20024;-45
2020/12/20 06:08:12;;;;;;;3.67;2.80;;;8.30;79.50;;;;;;5108258;28;20028;-45
2020/12/20 06:10:40;;;;;;;4.45;2.90;;;8.30;79.40;;;;;;5126042;28;20035;-46
2020/12/20 06:13:08;;;;;;;3.08;2.50;;;8.30;80.20;;;;;;5125307;28;20027;-45
2020/12/20 06:15:40;;;;;;;3.22;2.53;;;8.30;79.40;;;;;;5126072;28;20044;-45
2020/12/20 06:18:10;;;;;;;3.58;2.85;;;8.30;79.40;;;;;;5125966;28;20023;-45
2020/12/20 06:21:00;;;;;;;3.42;2.60;;;8.30;79.40;;;;;;5106021;28;20052;-45
2020/12/20 06:23:27;;;;;;;3.28;2.75;;;8.30;79.90;;;;;;5086556;28;20031;-45
2020/12/20 06:25:53;;;;;;;;;;;8.30;79.40;;;;;;5105798;28;20028;-45
2020/12/20 06:28:25;;;;;;;3.22;2.72;;;8.30;79.50;;;;;;5104953;28;19911;-45
2020/12/20 06:30:51;;;;;;;3.65;2.80;;;8.30;79.50;;;;;;5104912;28;20098;-45
2020/12/20 06:33:44;;;;;;;3.22;2.70;;;8.30;79.50;;;;;;5104127;28;20028;-45
2020/12/20 06:36:12;;;;;;;3.33;2.30;;;8.30;79.50;;;;;;5078091;28;20100;-45
2020/12/20 06:38:39;;;;;;;4.20;2.97;;;8.30;79.50;;;;;;5105085;28;20056;-45
2020/12/20 06:41:05;;;;;;;4.37;2.93;;;8.30;79.50;;;;;;5104935;28;20053;-45
2020/12/20 06:43:33;;;;;;;3.85;2.80;;;8.30;79.50;;;;;;5104343;28;20091;-45
2020/12/20 06:46:00;;;;;;;3.83;2.97;;;8.30;79.50;;;;;;5104913;28;20054;-45
2020/12/20 06:48:32;;;;;;;3.30;2.70;;;8.30;79.50;;;;;;5086393;28;20028;-45
2020/12/20 06:50:58;;;;;;;3.88;2.80;;;8.30;79.60;;;;;;5103650;28;20284;-45
2020/12/20 06:53:51;;;;;;;3.63;2.55;;;8.30;79.50;;;;;;5104344;28;20644;-45
2020/12/20 06:56:19;;;;;;;3.28;2.70;;;8.30;79.50;;;;;;5104552;28;20042;-45
2020/12/20 06:58:46;;;;;;;2.75;2.35;;;8.30;79.50;;;;;;5104467;28;20028;-44
2020/12/20 07:01:32;;;;;;;3.78;2.97;;;8.30;79.50;;;;;;5086437;28;20052;-44
2020/12/20 07:03:58;;;;;;;3.90;2.78;;;8.30;79.50;;;;;;5096207;28;20544;-44
2020/12/20 07:06:24;;;;;;;4.22;2.95;;;8.30;79.50;;;;;;5104428;28;20058;-44
2020/12/20 07:08:58;;;;;;;3.05;2.75;;;8.30;79.50;;;;;;5104268;28;20024;-44
2020/12/20 07:11:25;;;;;;;4.18;3.00;;;8.30;79.50;;;;;;5104079;28;20040;-45
2020/12/20 07:13:54;;;;;;;3.50;2.53;;;8.30;79.50;;;;;;5103859;28;20030;-45
2020/12/20 07:16:24;;;;;;;3.65;3.10;;;8.30;79.60;;;;;;5104154;28;20097;-45
2020/12/20 07:18:54;;;;;;;3.67;2.80;;;8.30;79.60;;;;;;5087817;28;20408;-45
2020/12/20 07:21:23;;;;;;;4.00;3.08;;;8.30;79.60;;;;;;5124586;28;20020;-45
2020/12/20 07:24:03;;;;;;;3.95;2.88;;;8.30;79.60;;;;;;5124298;28;20020;-45
2020/12/20 07:26:29;;;;;;;3.55;2.65;;;8.30;79.60;;;;;;5124437;28;20055;-45
2020/12/20 07:28:59;;;;;;;3.35;2.90;;;8.30;79.60;;;;;;5124077;28;20031;-45
2020/12/20 07:31:25;;;;;;;3.67;2.58;;;8.30;79.60;;;;;;5124131;28;20770;-44
2020/12/20 07:33:52;;;;;;;4.47;3.00;;;8.30;79.60;;;;;;5106026;28;20555;-45
2020/12/20 07:36:21;;;;;;;3.65;3.28;;;8.30;79.60;;;;;;5098026;28;20037;-46
2020/12/20 07:38:48;;;;;;;3.53;2.70;;;8.30;79.60;;;;;;5083389;28;20035;-45
2020/12/20 07:41:16;;;;;;;4.70;3.10;;;8.30;79.60;;;;;;5065367;28;20025;-45
2020/12/20 07:43:43;;;;;;;3.10;2.78;;;8.30;79.60;;;;;;5091288;28;20264;-45
2020/12/20 07:46:10;;;;;;;3.80;3.00;;;8.30;79.60;;;;;;5103538;28;20036;-45
2020/12/20 07:48:37;;;;;;;;;;;8.30;79.60;;;;;;5104080;28;20028;-45
2020/12/20 07:51:10;;;;;;;2.70;2.40;;;8.30;79.60;;;;;;5123506;28;19955;-45
2020/12/20 07:53:37;;;;;;;3.78;3.10;;;8.30;79.60;;;;;;5123540;28;20045;-45
2020/12/20 07:56:03;;;;;;;3.17;2.60;;;8.30;79.60;;;;;;5123991;28;20046;-45
2020/12/20 07:58:30;;;;;;;3.87;3.13;;;8.30;79.60;;;;;;5123805;28;20027;-45
2020/12/20 08:01:06;;;;;;;3.75;2.65;;;8.30;79.60;;;;;;5123667;28;20028;-45
2020/12/20 08:03:33;;;;;;;3.83;3.05;;;8.30;79.70;;;;;;5115745;28;20040;-45
2020/12/20 08:06:09;;;;;;;3.17;2.80;;;8.30;79.60;;;;;;5102136;28;20020;-45
2020/12/20 08:08:38;;;;;;;3.67;3.00;;;8.30;79.60;;;;;;5085028;28;20032;-45
2020/12/20 08:11:29;;;;;;;3.30;2.60;;;8.30;79.60;;;;;;5103321;28;20145;-45
2020/12/20 08:14:04;;;;;;;3.60;2.70;;;8.30;79.60;;;;;;5088148;28;20515;-45
2020/12/20 08:16:35;;;;;;;3.30;2.97;;;8.30;79.60;;;;;;5085324;28;20036;-45
2020/12/20 08:19:02;;;;;;;4.55;3.00;;;8.30;79.60;;;;;;5103049;28;20036;-46
2020/12/20 08:21:42;;;;;;;3.63;3.10;;;8.30;79.60;;;;;;5102870;28;20031;-45
2020/12/20 08:24:09;;;;;;;3.20;2.90;;;8.30;79.60;;;;;;5084648;28;20454;-44
2020/12/20 08:26:36;;;;;;;3.22;2.90;;;8.30;79.60;;;;;;5068428;28;20020;-45
2020/12/20 08:29:02;;;;;;;3.92;3.10;;;8.30;79.60;;;;;;5084078;28;20069;-45
2020/12/20 08:31:32;;;;;;;4.38;3.30;;;8.30;79.60;;;;;;5102498;28;20066;-45
2020/12/20 08:33:59;;;;;;;4.25;3.05;;;8.30;79.60;;;;;;5102022;28;20099;-45
2020/12/20 08:36:25;;;;;;;3.03;2.63;;;8.30;79.60;;;;;;5096133;28;20087;-45
2020/12/20 08:38:52;;;;;;;3.97;2.70;;;8.30;79.60;;;;;;5064934;28;20061;-45
2020/12/20 08:41:23;;;;;;;3.80;2.92;;;8.30;79.60;;;;;;5064820;28;20032;-45
2020/12/20 08:44:02;;;;;;;4.05;2.88;;;8.30;79.60;;;;;;5099072;28;20434;-46
2020/12/20 08:46:29;;;;;;;4.40;2.95;;;8.30;79.60;;;;;;5064578;28;20016;-45
2020/12/20 08:49:18;;;;;;;4.03;3.45;;;8.30;79.60;;;;;;5084684;28;20033;-45
2020/12/20 08:51:45;;;;;;;3.20;2.80;;;8.30;79.60;;;;;;5102602;28;20059;-44
2020/12/20 08:54:12;;;;;;;4.07;3.13;;;8.30;79.60;;;;;;5102486;28;20552;-44
2020/12/20 08:57:00;;;;;;;3.53;2.80;;;8.30;79.60;;;;;;5102667;28;20071;-45
2020/12/20 08:59:31;;;;;;;3.25;2.67;;;8.30;79.60;;;;;;5084257;28;20017;-45
2020/12/20 09:01:58;;;;;;;3.38;3.08;;;8.30;79.60;;;;;;5084662;28;20020;-45
2020/12/20 09:04:28;;;;;;;3.17;2.88;;;8.30;79.70;;;;;;5084338;28;20039;-45
2020/12/20 09:07:02;;;;;;;5.55;3.20;;;8.30;79.70;;;;;;5102359;28;20028;-45
2020/12/20 09:09:28;;;;;;;3.90;2.90;;;8.30;79.70;;;;;;5102273;28;20028;-45
2020/12/20 09:11:55;;;;;;;3.33;2.90;;;8.30;79.70;;;;;;5084227;28;20180;-45
2020/12/20 09:14:22;;;;;;;4.22;2.90;;;8.30;79.60;;;;;;5083787;28;20499;-44
2020/12/20 09:16:48;;;;;;;4.05;3.47;;;8.30;79.70;;;;;;5102656;28;20066;-44
2020/12/20 09:19:14;;;;;;;4.93;3.17;;;8.30;79.70;;;;;;5114871;28;20126;-45
2020/12/20 09:21:41;;;;;;;3.65;2.97;;;8.30;79.70;;;;;;5124606;28;20020;-44
2020/12/20 09:24:07;;;;;;;3.65;2.78;;;8.30;79.70;;;;;;5140166;28;20707;-44
2020/12/20 09:26:33;;;;;;;3.85;3.20;;;8.30;79.70;;;;;;5143071;28;20059;-44
2020/12/20 09:29:09;;;;;;;4.45;2.85;;;8.30;79.70;;;;;;5143092;28;20079;-44
2020/12/20 09:31:35;;;;;;;5.22;3.05;;;8.30;79.70;;;;;;5143041;28;20035;-44
2020/12/20 09:34:02;;;;;;;3.15;2.75;;;8.30;79.70;;;;;;5135414;28;20027;-44
2020/12/20 09:36:29;;;;;;;3.85;3.20;;;8.30;79.70;;;;;;5135494;28;20031;-44
2020/12/20 09:38:56;;;;;;;3.88;2.72;;;8.30;79.70;;;;;;5122696;28;20028;-44
2020/12/20 09:41:24;;;;;;;3.55;3.08;;;8.30;79.70;;;;;;5105857;28;20036;-44
2020/12/20 09:43:51;;;;;;;3.40;2.88;;;8.30;79.70;;;;;;5126266;28;20055;-44
2020/12/20 09:46:22;;;;;;;4.18;3.03;;;8.30;79.70;;;;;;5126077;28;20028;-44
2020/12/20 09:48:48;;;;;;;3.88;3.10;;;8.30;79.70;;;;;;5127388;27;20059;-44
2020/12/20 09:51:15;;;;;;;4.40;2.85;;;8.30;79.70;;;;;;5146763;27;20019;-44
2020/12/20 09:53:42;;;;;;;3.83;3.08;;;8.30;79.70;;;;;;5147058;27;20234;-44
2020/12/20 09:56:08;;;;;;;4.15;3.00;;;8.30;79.70;;;;;;5146405;27;20027;-44
2020/12/20 09:58:34;;;;;;;3.90;3.20;;;8.30;79.70;;;;;;5146497;27;20081;-44
2020/12/20 10:01:00;;;;;;;3.42;3.13;;;8.30;79.70;;;;;;5116750;27;20024;-44
2020/12/20 10:03:29;;;;;;;4.38;3.33;;;8.30;79.70;;;;;;5118266;27;20045;-44
2020/12/20 10:05:59;;;;;;;3.53;2.80;;;8.30;79.70;;;;;;5143846;27;20027;-44
2020/12/20 10:08:26;;;;;;;4.15;2.97;;;8.30;79.70;;;;;;5125961;28;20027;-44
2020/12/20 10:10:53;;;;;;;4.28;2.85;;;8.30;79.70;;;;;;5125893;28;20206;-45
2020/12/20 10:13:19;;;;;;;;;;;8.30;79.80;;;;;;5126275;28;20116;-45
2020/12/20 10:15:45;;;;;;;3.40;2.63;;;8.30;79.70;;;;;;5107054;28;20310;-44
2020/12/20 10:18:12;;;;;;;3.40;2.67;;;8.30;79.70;;;;;;5125810;28;20091;-44
2020/12/20 10:20:38;;;;;;;4.30;2.88;;;8.30;79.70;;;;;;5105922;28;20048;-45
2020/12/20 10:23:05;;;;;;;3.47;3.17;;;8.30;79.70;;;;;;5105297;28;20610;-44
2020/12/20 10:25:32;;;;;;;5.03;3.05;;;8.30;79.80;;;;;;5104854;28;20107;-45
2020/12/20 10:27:58;;;;;;;3.88;3.00;;;8.30;79.80;;;;;;5086993;28;20035;-44
2020/12/20 10:30:24;;;;;;;3.85;3.03;;;8.30;79.70;;;;;;5104747;28;20031;-44
2020/12/20 10:32:51;;;;;;;4.82;3.38;;;8.30;79.80;;;;;;5104935;28;20054;-44
2020/12/20 10:35:18;;;;;;;4.90;3.10;;;8.30;79.80;;;;;;5105114;28;20019;-45
2020/12/20 10:37:44;;;;;;;3.47;3.03;;;8.30;79.80;;;;;;5104575;28;20099;-44
2020/12/20 10:40:10;;;;;;;4.38;3.10;;;8.30;79.80;;;;;;5104857;28;20024;-45
2020/12/20 10:42:37;;;;;;;4.03;2.95;;;8.30;79.80;;;;;;5104670;28;20032;-44
2020/12/20 10:45:04;;;;;;;3.45;2.90;;;8.30;79.70;;;;;;5086488;28;20547;-43
2020/12/20 10:47:30;;;;;;;3.80;3.10;;;8.30;79.80;;;;;;5104529;28;20032;-44
2020/12/20 10:49:56;;;;;;;4.10;3.20;;;8.30;79.80;;;;;;5104497;28;20050;-44
2020/12/20 10:52:22;;;;;;;4.05;3.03;;;8.30;79.80;;;;;;5103848;28;20066;-45
2020/12/20 10:54:48;;;;;;;3.28;2.78;;;8.30;79.80;;;;;;5104272;28;20024;-44
2020/12/20 10:57:14;;;;;;;3.08;2.63;;;8.30;79.80;;;;;;5104210;28;20020;-44
2020/12/20 10:59:40;;;;;;;3.33;2.78;;;8.30;80.50;;;;;;5104288;28;20579;-44
2020/12/20 11:02:07;;;;;;;4.32;3.00;;;8.30;79.80;;;;;;5104381;28;20028;-44
2020/12/20 11:04:33;;;;;;;3.70;3.17;;;8.30;79.80;;;;;;5104661;28;20032;-44
2020/12/20 11:07:00;;;;;;;3.75;3.00;;;8.30;79.80;;;;;;5103129;28;20028;-45
2020/12/20 11:09:26;;;;;;;3.50;2.83;;;8.30;79.80;;;;;;5104284;28;20035;-44
2020/12/20 11:11:53;;;;;;;3.90;3.13;;;8.30;79.90;;;;;;5104082;28;20040;-44
2020/12/20 11:14:20;;;;;;;3.75;3.00;;;8.30;79.80;;;;;;5104094;28;20035;-44
2020/12/20 11:16:50;;;;;;;2.53;2.03;;;8.30;79.80;;;;;;5085727;28;20028;-44
2020/12/20 11:19:19;;;;;;;4.50;3.03;;;8.30;79.80;;;;;;5117389;27;20492;-44
2020/12/20 11:21:52;;;;;;;3.65;2.65;;;8.30;79.80;;;;;;5144733;27;20066;-43
2020/12/20 11:24:18;;;;;;;5.47;2.83;;;8.30;79.80;;;;;;5145018;27;20023;-44
2020/12/20 11:26:45;;;;;;;3.78;3.20;;;8.30;79.80;;;;;;5109395;27;20020;-44
2020/12/20 11:29:12;;;;;;;3.33;2.78;;;8.30;79.90;;;;;;5144814;27;20016;-44
2020/12/20 11:31:38;;;;;;;3.80;2.92;;;8.30;79.80;;;;;;5141535;27;20144;-44
2020/12/20 11:34:06;;;;;;;3.65;2.90;;;8.30;79.80;;;;;;5131896;27;20015;-44
2020/12/20 11:36:32;;;;;;;3.38;2.80;;;8.30;79.80;;;;;;5116248;28;20034;-44
2020/12/20 11:38:58;;;;;;;4.30;3.05;;;8.30;79.80;;;;;;5103515;28;20084;-43
2020/12/20 11:41:25;;;;;;;3.35;2.78;;;8.30;79.80;;;;;;5120166;28;20019;-43
2020/12/20 11:43:55;;;;;;;4.25;3.00;;;8.30;79.90;;;;;;5123976;28;20057;-44
2020/12/20 11:46:21;;;;;;;3.63;2.75;;;8.30;79.90;;;;;;5124004;28;20034;-44
2020/12/20 11:48:47;;;;;;;3.13;2.75;;;8.30;79.80;;;;;;5106575;27;20024;-44
2020/12/20 11:51:14;;;;;;;4.22;3.22;;;8.30;79.90;;;;;;5125917;27;20031;-44
2020/12/20 11:53:40;;;;;;;2.72;2.38;;;8.30;79.90;;;;;;5144541;27;20023;-45
2020/12/20 11:56:07;;;;;;;3.30;2.58;;;8.30;79.90;;;;;;5144538;27;20035;-44
2020/12/20 11:58:33;;;;;;;3.35;3.00;;;8.30;79.90;;;;;;5144066;27;20027;-44
2020/12/20 12:01:00;;;;;;;3.63;3.03;;;8.30;79.90;;;;;;5144530;27;20030;-45
2020/12/20 12:03:26;;;;;;;2.43;2.20;;;8.30;79.90;;;;;;5136403;27;20282;-44
2020/12/20 12:05:52;;;;;;;3.72;2.88;;;8.30;79.90;;;;;;5141950;27;20033;-44
2020/12/20 12:08:18;;;;;;;4.05;2.90;;;8.30;79.90;;;;;;5123286;28;20750;-44
2020/12/20 12:10:49;;;;;;;3.25;2.72;;;8.30;79.90;;;;;;5123441;28;20066;-44
2020/12/20 12:13:16;;;;;;;4.03;3.20;;;8.30;79.90;;;;;;5123273;28;20028;-45
2020/12/20 12:15:42;;;;;;;4.50;3.20;;;8.30;79.90;;;;;;5123424;28;20027;-44
2020/12/20 12:18:08;;;;;;;4.25;3.47;;;8.30;79.90;;;;;;5123449;28;20032;-45
2020/12/20 12:20:35;;;;;;;3.38;3.05;;;8.30;79.90;;;;;;5104178;28;20052;-44
2020/12/20 12:23:01;;;;;;;4.18;3.28;;;8.30;79.90;;;;;;5102777;28;20108;-44
2020/12/20 12:25:27;;;;;;;3.60;2.95;;;8.30;79.90;;;;;;5102991;28;20028;-45
2020/12/20 12:27:53;;;;;;;4.50;3.42;;;8.30;79.90;;;;;;5102990;28;20020;-44
2020/12/20 12:30:19;;;;;;;3.45;2.80;;;8.30;80.60;;;;;;5102322;28;20035;-44
2020/12/20 12:32:46;;;;;;;4.30;3.35;;;8.30;79.90;;;;;;5102467;28;20044;-46
2020/12/20 12:35:12;;;;;;;4.65;3.00;;;8.30;79.90;;;;;;5102840;28;20024;-44
2020/12/20 12:37:38;;;;;;;4.13;3.25;;;8.30;79.90;;;;;;5102396;28;20035;-44
2020/12/20 12:40:05;;;;;;;3.88;3.47;;;8.30;79.90;;;;;;5102469;28;20035;-44
2020/12/20 12:42:31;;;;;;;4.45;3.42;;;8.30;79.90;;;;;;5102792;28;20024;-44
2020/12/20 12:44:58;;;;;;;3.80;3.17;;;8.30;79.90;;;;;;5102280;28;20042;-45
2020/12/20 12:47:24;;;;;;;3.78;3.30;;;8.30;79.90;;;;;;5102911;28;20071;-45
2020/12/20 12:49:50;;;;;;;5.18;3.38;;;8.30;79.90;;;;;;5102298;28;20031;-45
2020/12/20 12:52:16;;;;;;;4.65;3.20;;;8.30;80.00;;;;;;5102230;28;20040;-45
2020/12/20 12:54:42;;;;;;;4.72;3.47;;;8.30;79.90;;;;;;5102555;28;20111;-45
2020/12/20 12:57:08;;;;;;;3.35;2.92;;;8.30;80.00;;;;;;5102657;28;20381;-45
2020/12/20 12:59:36;;;;;;;3.78;3.08;;;8.30;79.90;;;;;;5067319;28;20061;-46
2020/12/20 13:02:02;;;;;;;4.20;3.45;;;8.30;79.90;;;;;;5102543;28;20052;-45
2020/12/20 13:04:28;;;;;;;4.22;3.35;;;8.30;80.00;;;;;;5102458;28;20040;-44